sensor_id;sensor_type;location;lat;lon;timestamp;P1;durP1;ratioP1;P2;durP2;ratioP2
68229;SDS011;55048;52.220;5.160;2023-10-19T00:02:04;6.37;;;5.40;;
68229;SDS011;55048;52.220;5.160;2023-10-19T00:04:31;8.27;;;6.25;;
68229;SDS011;55048;52.220;5.160;2023-10-19T00:06:59;6.53;;;5.93;;
68229;SDS011;55048;52.220;5.160;2023-10-19T00:09:25;7.22;;;6.13;;
68229;SDS011;55048;52.220;5.160;2023-10-19T00:11:55;7.20;;;6.30;;
68229;SDS011;55048;52.220;5.160;2023-10-19T00:14:20;7.40;;;6.38;;
68229;SDS011;55048;52.220;5.160;2023-10-19T00:16:46;7.28;;;6.50;;
68229;SDS011;55048;52.220;5.160;2023-10-19T00:19:31;8.38;;;6.22;;
68229;SDS011;55048;52.220;5.160;2023-10-19T00:22:04;6.80;;;6.13;;
68229;SDS011;55048;52.220;5.160;2023-10-19T00:24:34;7.63;;;6.80;;
68229;SDS011;55048;52.220;5.160;2023-10-19T00:27:00;11.85;;;7.82;;
68229;SDS011;55048;52.220;5.160;2023-10-19T00:29:35;9.50;;;8.48;;
68229;SDS011;55048;52.220;5.160;2023-10-19T00:32:05;9.05;;;7.97;;
68229;SDS011;55048;52.220;5.160;2023-10-19T00:34:31;14.38;;;8.23;;
68229;SDS011;55048;52.220;5.160;2023-10-19T00:36:58;11.45;;;8.38;;
68229;SDS011;55048;52.220;5.160;2023-10-19T00:39:33;12.27;;;8.65;;
68229;SDS011;55048;52.220;5.160;2023-10-19T00:42:08;11.05;;;8.73;;
68229;SDS011;55048;52.220;5.160;2023-10-19T00:44:34;10.18;;;9.15;;
68229;SDS011;55048;52.220;5.160;2023-10-19T00:47:07;10.07;;;8.77;;
68229;SDS011;55048;52.220;5.160;2023-10-19T00:49:38;10.38;;;9.27;;
68229;SDS011;55048;52.220;5.160;2023-10-19T00:52:04;11.48;;;9.18;;
68229;SDS011;55048;52.220;5.160;2023-10-19T00:54:44;11.40;;;10.10;;
68229;SDS011;55048;52.220;5.160;2023-10-19T00:57:13;13.98;;;9.75;;
68229;SDS011;55048;52.220;5.160;2023-10-19T00:59:45;12.85;;;10.00;;
68229;SDS011;55048;52.220;5.160;2023-10-19T01:02:25;12.70;;;9.95;;
68229;SDS011;55048;52.220;5.160;2023-10-19T01:04:51;13.80;;;10.18;;
68229;SDS011;55048;52.220;5.160;2023-10-19T01:07:32;14.55;;;10.95;;
68229;SDS011;55048;52.220;5.160;2023-10-19T01:10:04;12.55;;;8.40;;
68229;SDS011;55048;52.220;5.160;2023-10-19T01:12:31;16.10;;;10.65;;
68229;SDS011;55048;52.220;5.160;2023-10-19T01:15:04;15.23;;;12.05;;
68229;SDS011;55048;52.220;5.160;2023-10-19T01:17:33;15.40;;;11.98;;
68229;SDS011;55048;52.220;5.160;2023-10-19T01:20:04;14.32;;;11.68;;
68229;SDS011;55048;52.220;5.160;2023-10-19T01:23:00;14.85;;;11.55;;
68229;SDS011;55048;52.220;5.160;2023-10-19T01:28:21;15.55;;;11.23;;
68229;SDS011;55048;52.220;5.160;2023-10-19T01:33:19;12.95;;;10.43;;
68229;SDS011;55048;52.220;5.160;2023-10-19T01:35:45;20.33;;;13.82;;
68229;SDS011;55048;52.220;5.160;2023-10-19T01:38:30;19.83;;;13.25;;
68229;SDS011;55048;52.220;5.160;2023-10-19T01:41:03;26.02;;;14.45;;
68229;SDS011;55048;52.220;5.160;2023-10-19T01:43:49;21.45;;;14.13;;
68229;SDS011;55048;52.220;5.160;2023-10-19T01:46:18;20.13;;;14.65;;
68229;SDS011;55048;52.220;5.160;2023-10-19T01:48:54;22.88;;;15.20;;
68229;SDS011;55048;52.220;5.160;2023-10-19T01:51:21;21.90;;;15.02;;
68229;SDS011;55048;52.220;5.160;2023-10-19T01:53:48;24.85;;;15.38;;
68229;SDS011;55048;52.220;5.160;2023-10-19T01:56:14;26.00;;;16.77;;
68229;SDS011;55048;52.220;5.160;2023-10-19T02:01:13;22.13;;;15.35;;
68229;SDS011;55048;52.220;5.160;2023-10-19T02:03:45;20.70;;;14.75;;
68229;SDS011;55048;52.220;5.160;2023-10-19T02:06:13;27.25;;;16.13;;
68229;SDS011;55048;52.220;5.160;2023-10-19T02:11:14;24.77;;;16.27;;
68229;SDS011;55048;52.220;5.160;2023-10-19T02:16:21;21.35;;;13.38;;
68229;SDS011;55048;52.220;5.160;2023-10-19T02:18:48;24.52;;;15.77;;
68229;SDS011;55048;52.220;5.160;2023-10-19T02:21:14;27.27;;;16.48;;
68229;SDS011;55048;52.220;5.160;2023-10-19T02:23:41;24.50;;;14.80;;
68229;SDS011;55048;52.220;5.160;2023-10-19T02:26:09;30.35;;;16.88;;
68229;SDS011;55048;52.220;5.160;2023-10-19T02:28:38;23.75;;;16.77;;
68229;SDS011;55048;52.220;5.160;2023-10-19T02:31:04;25.50;;;15.55;;
68229;SDS011;55048;52.220;5.160;2023-10-19T02:33:43;23.58;;;14.98;;
68229;SDS011;55048;52.220;5.160;2023-10-19T02:36:16;29.98;;;14.90;;
68229;SDS011;55048;52.220;5.160;2023-10-19T02:38:44;28.85;;;16.35;;
68229;SDS011;55048;52.220;5.160;2023-10-19T02:41:16;22.92;;;14.93;;
68229;SDS011;55048;52.220;5.160;2023-10-19T02:43:43;25.42;;;15.90;;
68229;SDS011;55048;52.220;5.160;2023-10-19T02:46:16;27.30;;;14.20;;
68229;SDS011;55048;52.220;5.160;2023-10-19T02:48:45;24.50;;;15.45;;
68229;SDS011;55048;52.220;5.160;2023-10-19T02:51:12;26.10;;;14.48;;
68229;SDS011;55048;52.220;5.160;2023-10-19T02:53:41;24.60;;;13.50;;
68229;SDS011;55048;52.220;5.160;2023-10-19T02:56:14;29.03;;;14.80;;
68229;SDS011;55048;52.220;5.160;2023-10-19T02:58:44;31.15;;;15.32;;
68229;SDS011;55048;52.220;5.160;2023-10-19T03:01:23;26.70;;;14.35;;
68229;SDS011;55048;52.220;5.160;2023-10-19T03:03:54;28.58;;;15.00;;
68229;SDS011;55048;52.220;5.160;2023-10-19T03:06:26;23.50;;;14.77;;
68229;SDS011;55048;52.220;5.160;2023-10-19T03:08:56;29.70;;;15.90;;
68229;SDS011;55048;52.220;5.160;2023-10-19T03:11:51;28.77;;;14.63;;
68229;SDS011;55048;52.220;5.160;2023-10-19T03:14:22;28.70;;;15.68;;
68229;SDS011;55048;52.220;5.160;2023-10-19T03:16:50;32.25;;;15.18;;
68229;SDS011;55048;52.220;5.160;2023-10-19T03:19:16;30.85;;;16.15;;
68229;SDS011;55048;52.220;5.160;2023-10-19T03:21:41;31.65;;;16.90;;
68229;SDS011;55048;52.220;5.160;2023-10-19T03:24:13;32.35;;;16.95;;
68229;SDS011;55048;52.220;5.160;2023-10-19T03:27:00;35.70;;;16.08;;
68229;SDS011;55048;52.220;5.160;2023-10-19T03:29:26;31.50;;;16.15;;
68229;SDS011;55048;52.220;5.160;2023-10-19T03:31:57;29.58;;;14.68;;
68229;SDS011;55048;52.220;5.160;2023-10-19T03:34:24;30.02;;;15.50;;
68229;SDS011;55048;52.220;5.160;2023-10-19T03:36:49;29.80;;;14.65;;
68229;SDS011;55048;52.220;5.160;2023-10-19T03:39:19;26.75;;;15.45;;
68229;SDS011;55048;52.220;5.160;2023-10-19T03:41:46;32.08;;;14.73;;
68229;SDS011;55048;52.220;5.160;2023-10-19T03:44:11;34.20;;;15.57;;
68229;SDS011;55048;52.220;5.160;2023-10-19T03:46:57;35.05;;;14.85;;
68229;SDS011;55048;52.220;5.160;2023-10-19T03:49:29;34.08;;;15.32;;
68229;SDS011;55048;52.220;5.160;2023-10-19T03:52:03;28.85;;;14.52;;
68229;SDS011;55048;52.220;5.160;2023-10-19T03:54:34;27.98;;;13.90;;
68229;SDS011;55048;52.220;5.160;2023-10-19T03:57:06;26.98;;;12.93;;
68229;SDS011;55048;52.220;5.160;2023-10-19T03:59:52;27.83;;;13.00;;
68229;SDS011;55048;52.220;5.160;2023-10-19T04:02:21;25.58;;;12.63;;
68229;SDS011;55048;52.220;5.160;2023-10-19T04:04:47;31.75;;;12.00;;
68229;SDS011;55048;52.220;5.160;2023-10-19T04:07:13;20.05;;;11.75;;
68229;SDS011;55048;52.220;5.160;2023-10-19T04:09:49;25.77;;;11.32;;
68229;SDS011;55048;52.220;5.160;2023-10-19T04:12:25;21.83;;;11.23;;
68229;SDS011;55048;52.220;5.160;2023-10-19T04:14:56;19.88;;;10.20;;
68229;SDS011;55048;52.220;5.160;2023-10-19T04:17:21;19.10;;;9.85;;
68229;SDS011;55048;52.220;5.160;2023-10-19T04:19:49;20.25;;;9.55;;
68229;SDS011;55048;52.220;5.160;2023-10-19T04:22:18;24.20;;;9.40;;
68229;SDS011;55048;52.220;5.160;2023-10-19T04:24:53;22.10;;;9.05;;
68229;SDS011;55048;52.220;5.160;2023-10-19T04:27:18;19.48;;;8.23;;
68229;SDS011;55048;52.220;5.160;2023-10-19T04:29:48;15.02;;;7.40;;
68229;SDS011;55048;52.220;5.160;2023-10-19T04:32:14;16.35;;;7.82;;
68229;SDS011;55048;52.220;5.160;2023-10-19T04:34:48;23.00;;;7.50;;
68229;SDS011;55048;52.220;5.160;2023-10-19T04:37:13;17.08;;;7.45;;
68229;SDS011;55048;52.220;5.160;2023-10-19T04:39:43;17.13;;;7.00;;
68229;SDS011;55048;52.220;5.160;2023-10-19T04:42:09;15.45;;;6.85;;
68229;SDS011;55048;52.220;5.160;2023-10-19T04:44:34;18.52;;;6.15;;
68229;SDS011;55048;52.220;5.160;2023-10-19T04:47:00;14.27;;;5.78;;
68229;SDS011;55048;52.220;5.160;2023-10-19T04:49:25;13.10;;;6.00;;
68229;SDS011;55048;52.220;5.160;2023-10-19T04:51:50;16.52;;;5.43;;
68229;SDS011;55048;52.220;5.160;2023-10-19T04:54:16;15.00;;;5.00;;
68229;SDS011;55048;52.220;5.160;2023-10-19T04:56:41;19.98;;;4.75;;
68229;SDS011;55048;52.220;5.160;2023-10-19T04:59:06;10.55;;;4.30;;
68229;SDS011;55048;52.220;5.160;2023-10-19T05:01:32;16.08;;;4.43;;
68229;SDS011;55048;52.220;5.160;2023-10-19T05:04:00;18.70;;;4.72;;
68229;SDS011;55048;52.220;5.160;2023-10-19T05:06:26;13.82;;;3.97;;
68229;SDS011;55048;52.220;5.160;2023-10-19T05:08:51;12.43;;;3.28;;
68229;SDS011;55048;52.220;5.160;2023-10-19T05:11:20;12.40;;;3.17;;
68229;SDS011;55048;52.220;5.160;2023-10-19T05:13:45;7.25;;;2.42;;
68229;SDS011;55048;52.220;5.160;2023-10-19T05:16:10;10.15;;;2.75;;
68229;SDS011;55048;52.220;5.160;2023-10-19T05:18:36;8.82;;;2.30;;
68229;SDS011;55048;52.220;5.160;2023-10-19T05:21:01;10.07;;;1.90;;
68229;SDS011;55048;52.220;5.160;2023-10-19T05:23:27;11.32;;;2.50;;
68229;SDS011;55048;52.220;5.160;2023-10-19T05:25:53;14.38;;;2.22;;
68229;SDS011;55048;52.220;5.160;2023-10-19T05:28:25;10.10;;;2.30;;
68229;SDS011;55048;52.220;5.160;2023-10-19T05:30:54;8.30;;;2.25;;
68229;SDS011;55048;52.220;5.160;2023-10-19T05:33:44;9.45;;;2.28;;
68229;SDS011;55048;52.220;5.160;2023-10-19T05:36:09;13.63;;;1.83;;
68229;SDS011;55048;52.220;5.160;2023-10-19T05:38:35;11.63;;;1.90;;
68229;SDS011;55048;52.220;5.160;2023-10-19T05:41:00;12.82;;;1.73;;
68229;SDS011;55048;52.220;5.160;2023-10-19T05:43:26;11.40;;;1.35;;
68229;SDS011;55048;52.220;5.160;2023-10-19T05:45:51;4.00;;;1.30;;
68229;SDS011;55048;52.220;5.160;2023-10-19T05:48:17;6.70;;;1.40;;
68229;SDS011;55048;52.220;5.160;2023-10-19T05:50:50;6.40;;;1.52;;
68229;SDS011;55048;52.220;5.160;2023-10-19T05:53:18;12.00;;;2.00;;
68229;SDS011;55048;52.220;5.160;2023-10-19T05:56:10;11.15;;;1.40;;
68229;SDS011;55048;52.220;5.160;2023-10-19T05:58:45;8.73;;;1.40;;
68229;SDS011;55048;52.220;5.160;2023-10-19T06:01:13;13.45;;;1.60;;
68229;SDS011;55048;52.220;5.160;2023-10-19T06:03:39;9.32;;;1.60;;
68229;SDS011;55048;52.220;5.160;2023-10-19T06:06:27;7.55;;;1.67;;
68229;SDS011;55048;52.220;5.160;2023-10-19T06:08:52;9.00;;;2.05;;
68229;SDS011;55048;52.220;5.160;2023-10-19T06:11:19;14.80;;;2.25;;
68229;SDS011;55048;52.220;5.160;2023-10-19T06:13:45;10.88;;;1.75;;
68229;SDS011;55048;52.220;5.160;2023-10-19T06:16:11;13.70;;;1.83;;
68229;SDS011;55048;52.220;5.160;2023-10-19T06:18:36;17.40;;;1.70;;
68229;SDS011;55048;52.220;5.160;2023-10-19T06:21:02;7.25;;;1.30;;
68229;SDS011;55048;52.220;5.160;2023-10-19T06:23:29;6.00;;;1.20;;
68229;SDS011;55048;52.220;5.160;2023-10-19T06:25:56;5.90;;;1.10;;
68229;SDS011;55048;52.220;5.160;2023-10-19T06:28:22;7.75;;;1.10;;
68229;SDS011;55048;52.220;5.160;2023-10-19T06:30:47;10.80;;;1.23;;
68229;SDS011;55048;52.220;5.160;2023-10-19T06:33:13;12.10;;;1.35;;
68229;SDS011;55048;52.220;5.160;2023-10-19T06:35:38;13.77;;;1.30;;
68229;SDS011;55048;52.220;5.160;2023-10-19T06:38:05;7.75;;;0.98;;
68229;SDS011;55048;52.220;5.160;2023-10-19T06:40:34;15.95;;;1.15;;
68229;SDS011;55048;52.220;5.160;2023-10-19T06:43:01;9.02;;;1.20;;
68229;SDS011;55048;52.220;5.160;2023-10-19T06:45:28;8.63;;;1.52;;
68229;SDS011;55048;52.220;5.160;2023-10-19T06:47:56;12.23;;;1.23;;
68229;SDS011;55048;52.220;5.160;2023-10-19T06:50:26;13.30;;;1.10;;
68229;SDS011;55048;52.220;5.160;2023-10-19T06:52:52;11.73;;;1.30;;
68229;SDS011;55048;52.220;5.160;2023-10-19T06:55:19;15.45;;;1.30;;
68229;SDS011;55048;52.220;5.160;2023-10-19T06:57:46;11.73;;;1.00;;
68229;SDS011;55048;52.220;5.160;2023-10-19T07:00:13;8.57;;;1.20;;
68229;SDS011;55048;52.220;5.160;2023-10-19T07:02:44;13.15;;;1.13;;
68229;SDS011;55048;52.220;5.160;2023-10-19T07:05:11;9.15;;;1.08;;
68229;SDS011;55048;52.220;5.160;2023-10-19T07:07:41;10.50;;;1.30;;
68229;SDS011;55048;52.220;5.160;2023-10-19T07:10:14;12.50;;;1.00;;
68229;SDS011;55048;52.220;5.160;2023-10-19T07:12:41;8.65;;;1.10;;
68229;SDS011;55048;52.220;5.160;2023-10-19T07:15:09;11.45;;;1.52;;
68229;SDS011;55048;52.220;5.160;2023-10-19T07:17:39;7.47;;;1.30;;
68229;SDS011;55048;52.220;5.160;2023-10-19T07:20:09;7.40;;;1.38;;
68229;SDS011;55048;52.220;5.160;2023-10-19T07:22:50;5.55;;;1.30;;
68229;SDS011;55048;52.220;5.160;2023-10-19T07:25:16;9.02;;;1.02;;
68229;SDS011;55048;52.220;5.160;2023-10-19T07:27:45;8.80;;;1.10;;
68229;SDS011;55048;52.220;5.160;2023-10-19T07:30:11;11.57;;;1.25;;
68229;SDS011;55048;52.220;5.160;2023-10-19T07:32:40;11.45;;;1.40;;
68229;SDS011;55048;52.220;5.160;2023-10-19T07:35:06;15.35;;;1.10;;
68229;SDS011;55048;52.220;5.160;2023-10-19T07:37:31;14.30;;;1.13;;
68229;SDS011;55048;52.220;5.160;2023-10-19T07:39:57;14.20;;;1.30;;
68229;SDS011;55048;52.220;5.160;2023-10-19T07:42:22;16.63;;;1.77;;
68229;SDS011;55048;52.220;5.160;2023-10-19T07:44:48;10.60;;;1.40;;
68229;SDS011;55048;52.220;5.160;2023-10-19T07:47:14;5.45;;;1.20;;
68229;SDS011;55048;52.220;5.160;2023-10-19T07:49:40;9.77;;;1.10;;
68229;SDS011;55048;52.220;5.160;2023-10-19T07:52:06;7.90;;;1.17;;
68229;SDS011;55048;52.220;5.160;2023-10-19T07:54:35;6.25;;;1.20;;
68229;SDS011;55048;52.220;5.160;2023-10-19T07:57:10;9.73;;;1.00;;
68229;SDS011;55048;52.220;5.160;2023-10-19T07:59:37;13.27;;;1.33;;
68229;SDS011;55048;52.220;5.160;2023-10-19T08:02:03;8.25;;;1.08;;
68229;SDS011;55048;52.220;5.160;2023-10-19T08:04:29;10.57;;;1.10;;
68229;SDS011;55048;52.220;5.160;2023-10-19T08:06:55;11.25;;;1.20;;
68229;SDS011;55048;52.220;5.160;2023-10-19T08:09:22;5.60;;;1.13;;
68229;SDS011;55048;52.220;5.160;2023-10-19T08:11:48;5.55;;;1.13;;
68229;SDS011;55048;52.220;5.160;2023-10-19T08:14:14;7.35;;;1.05;;
68229;SDS011;55048;52.220;5.160;2023-10-19T08:16:40;16.95;;;1.27;;
68229;SDS011;55048;52.220;5.160;2023-10-19T08:19:06;5.38;;;1.10;;
68229;SDS011;55048;52.220;5.160;2023-10-19T08:21:32;7.50;;;1.10;;
68229;SDS011;55048;52.220;5.160;2023-10-19T08:23:59;13.70;;;1.52;;
68229;SDS011;55048;52.220;5.160;2023-10-19T08:26:29;12.25;;;1.33;;
68229;SDS011;55048;52.220;5.160;2023-10-19T08:28:55;12.23;;;1.33;;
68229;SDS011;55048;52.220;5.160;2023-10-19T08:31:21;10.98;;;1.90;;
68229;SDS011;55048;52.220;5.160;2023-10-19T08:33:46;13.88;;;1.33;;
68229;SDS011;55048;52.220;5.160;2023-10-19T08:36:19;15.10;;;2.13;;
68229;SDS011;55048;52.220;5.160;2023-10-19T08:38:45;14.68;;;1.60;;
68229;SDS011;55048;52.220;5.160;2023-10-19T08:41:11;10.90;;;1.38;;
68229;SDS011;55048;52.220;5.160;2023-10-19T08:43:39;10.40;;;1.40;;
68229;SDS011;55048;52.220;5.160;2023-10-19T08:46:05;10.32;;;1.30;;
68229;SDS011;55048;52.220;5.160;2023-10-19T08:48:35;10.50;;;1.13;;
68229;SDS011;55048;52.220;5.160;2023-10-19T08:51:02;9.63;;;1.35;;
68229;SDS011;55048;52.220;5.160;2023-10-19T08:53:33;13.20;;;2.45;;
68229;SDS011;55048;52.220;5.160;2023-10-19T08:56:05;13.63;;;3.45;;
68229;SDS011;55048;52.220;5.160;2023-10-19T08:58:32;10.23;;;1.40;;
68229;SDS011;55048;52.220;5.160;2023-10-19T09:00:57;15.60;;;1.65;;
68229;SDS011;55048;52.220;5.160;2023-10-19T09:03:25;8.68;;;1.85;;
68229;SDS011;55048;52.220;5.160;2023-10-19T09:05:51;17.45;;;1.90;;
68229;SDS011;55048;52.220;5.160;2023-10-19T09:08:17;12.15;;;1.73;;
68229;SDS011;55048;52.220;5.160;2023-10-19T09:10:45;17.10;;;1.98;;
68229;SDS011;55048;52.220;5.160;2023-10-19T09:13:11;17.73;;;1.67;;
68229;SDS011;55048;52.220;5.160;2023-10-19T09:15:38;13.15;;;1.73;;
68229;SDS011;55048;52.220;5.160;2023-10-19T09:18:14;11.45;;;1.83;;
68229;SDS011;55048;52.220;5.160;2023-10-19T09:20:41;7.32;;;1.38;;
68229;SDS011;55048;52.220;5.160;2023-10-19T09:23:17;9.50;;;1.30;;
68229;SDS011;55048;52.220;5.160;2023-10-19T09:25:55;9.93;;;1.20;;
68229;SDS011;55048;52.220;5.160;2023-10-19T09:28:22;13.88;;;1.50;;
68229;SDS011;55048;52.220;5.160;2023-10-19T09:30:49;8.55;;;1.40;;
68229;SDS011;55048;52.220;5.160;2023-10-19T09:33:15;15.07;;;1.23;;
68229;SDS011;55048;52.220;5.160;2023-10-19T09:35:49;9.10;;;1.50;;
68229;SDS011;55048;52.220;5.160;2023-10-19T09:38:19;8.80;;;1.30;;
68229;SDS011;55048;52.220;5.160;2023-10-19T09:40:47;9.52;;;1.10;;
68229;SDS011;55048;52.220;5.160;2023-10-19T09:43:48;7.28;;;1.08;;
68229;SDS011;55048;52.220;5.160;2023-10-19T09:46:10;8.70;;;0.98;;
68229;SDS011;55048;52.220;5.160;2023-10-19T09:48:40;11.88;;;1.20;;
68229;SDS011;55048;52.220;5.160;2023-10-19T09:51:07;11.02;;;1.05;;
68229;SDS011;55048;52.220;5.160;2023-10-19T09:53:34;7.88;;;1.10;;
68229;SDS011;55048;52.220;5.160;2023-10-19T09:56:02;13.15;;;1.63;;
68229;SDS011;55048;52.220;5.160;2023-10-19T09:58:41;7.57;;;1.20;;
68229;SDS011;55048;52.220;5.160;2023-10-19T10:01:10;6.25;;;0.98;;
68229;SDS011;55048;52.220;5.160;2023-10-19T10:03:46;9.48;;;1.17;;
68229;SDS011;55048;52.220;5.160;2023-10-19T10:06:17;7.47;;;1.00;;
68229;SDS011;55048;52.220;5.160;2023-10-19T10:08:52;10.75;;;1.10;;
68229;SDS011;55048;52.220;5.160;2023-10-19T10:11:19;7.68;;;1.00;;
68229;SDS011;55048;52.220;5.160;2023-10-19T10:16:46;8.60;;;1.02;;
68229;SDS011;55048;52.220;5.160;2023-10-19T10:19:14;11.13;;;1.23;;
68229;SDS011;55048;52.220;5.160;2023-10-19T10:22:03;10.30;;;1.20;;
68229;SDS011;55048;52.220;5.160;2023-10-19T10:24:39;10.00;;;1.50;;
68229;SDS011;55048;52.220;5.160;2023-10-19T10:27:06;10.85;;;1.30;;
68229;SDS011;55048;52.220;5.160;2023-10-19T10:29:31;10.68;;;1.30;;
68229;SDS011;55048;52.220;5.160;2023-10-19T10:31:57;11.48;;;1.30;;
68229;SDS011;55048;52.220;5.160;2023-10-19T10:37:10;15.07;;;1.48;;
68229;SDS011;55048;52.220;5.160;2023-10-19T10:39:37;14.63;;;1.00;;
68229;SDS011;55048;52.220;5.160;2023-10-19T10:42:04;7.53;;;1.20;;
68229;SDS011;55048;52.220;5.160;2023-10-19T10:44:37;5.53;;;1.17;;
68229;SDS011;55048;52.220;5.160;2023-10-19T10:47:16;12.75;;;1.33;;
68229;SDS011;55048;52.220;5.160;2023-10-19T10:49:52;14.95;;;1.33;;
68229;SDS011;55048;52.220;5.160;2023-10-19T10:52:52;11.30;;;1.38;;
68229;SDS011;55048;52.220;5.160;2023-10-19T10:55:12;17.17;;;1.63;;
68229;SDS011;55048;52.220;5.160;2023-10-19T10:57:40;13.30;;;1.70;;
68229;SDS011;55048;52.220;5.160;2023-10-19T11:00:07;13.32;;;1.50;;
68229;SDS011;55048;52.220;5.160;2023-10-19T11:02:58;13.18;;;1.40;;
68229;SDS011;55048;52.220;5.160;2023-10-19T11:05:25;8.75;;;1.20;;
68229;SDS011;55048;52.220;5.160;2023-10-19T11:08:02;10.38;;;1.73;;
68229;SDS011;55048;52.220;5.160;2023-10-19T11:10:31;13.88;;;1.63;;
68229;SDS011;55048;52.220;5.160;2023-10-19T11:13:15;8.23;;;1.20;;
68229;SDS011;55048;52.220;5.160;2023-10-19T11:15:49;11.80;;;1.25;;
68229;SDS011;55048;52.220;5.160;2023-10-19T11:21:10;10.73;;;1.05;;
68229;SDS011;55048;52.220;5.160;2023-10-19T11:23:46;9.73;;;1.23;;
68229;SDS011;55048;52.220;5.160;2023-10-19T11:26:15;10.13;;;1.30;;
68229;SDS011;55048;52.220;5.160;2023-10-19T11:28:44;15.32;;;1.42;;
68229;SDS011;55048;52.220;5.160;2023-10-19T11:31:17;7.50;;;1.00;;
68229;SDS011;55048;52.220;5.160;2023-10-19T11:33:44;13.45;;;1.50;;
68229;SDS011;55048;52.220;5.160;2023-10-19T11:36:13;4.45;;;1.00;;
68229;SDS011;55048;52.220;5.160;2023-10-19T11:38:40;9.75;;;1.45;;
68229;SDS011;55048;52.220;5.160;2023-10-19T11:41:09;8.48;;;1.20;;
68229;SDS011;55048;52.220;5.160;2023-10-19T11:43:35;11.27;;;1.63;;
68229;SDS011;55048;52.220;5.160;2023-10-19T11:46:01;17.80;;;1.65;;
68229;SDS011;55048;52.220;5.160;2023-10-19T11:48:29;8.27;;;1.17;;
68229;SDS011;55048;52.220;5.160;2023-10-19T11:50:56;13.02;;;1.20;;
68229;SDS011;55048;52.220;5.160;2023-10-19T11:53:21;8.30;;;1.20;;
68229;SDS011;55048;52.220;5.160;2023-10-19T11:55:47;12.07;;;1.13;;
68229;SDS011;55048;52.220;5.160;2023-10-19T11:58:15;8.38;;;1.27;;
68229;SDS011;55048;52.220;5.160;2023-10-19T12:00:41;12.43;;;1.25;;
68229;SDS011;55048;52.220;5.160;2023-10-19T12:03:12;6.05;;;1.00;;
68229;SDS011;55048;52.220;5.160;2023-10-19T12:05:38;7.88;;;1.05;;
68229;SDS011;55048;52.220;5.160;2023-10-19T12:08:04;8.48;;;1.10;;
68229;SDS011;55048;52.220;5.160;2023-10-19T12:10:31;9.82;;;1.08;;
68229;SDS011;55048;52.220;5.160;2023-10-19T12:13:06;11.48;;;1.48;;
68229;SDS011;55048;52.220;5.160;2023-10-19T12:15:33;18.92;;;2.20;;
68229;SDS011;55048;52.220;5.160;2023-10-19T12:17:59;13.07;;;1.45;;
68229;SDS011;55048;52.220;5.160;2023-10-19T12:20:25;11.25;;;1.40;;
68229;SDS011;55048;52.220;5.160;2023-10-19T12:22:51;13.38;;;1.25;;
68229;SDS011;55048;52.220;5.160;2023-10-19T12:25:20;18.67;;;1.30;;
68229;SDS011;55048;52.220;5.160;2023-10-19T12:27:53;9.82;;;1.23;;
68229;SDS011;55048;52.220;5.160;2023-10-19T12:30:19;10.30;;;1.08;;
68229;SDS011;55048;52.220;5.160;2023-10-19T12:32:45;18.73;;;1.67;;
68229;SDS011;55048;52.220;5.160;2023-10-19T12:35:14;10.02;;;1.58;;
68229;SDS011;55048;52.220;5.160;2023-10-19T12:37:40;13.75;;;1.45;;
68229;SDS011;55048;52.220;5.160;2023-10-19T12:40:12;15.75;;;1.58;;
68229;SDS011;55048;52.220;5.160;2023-10-19T12:42:58;15.30;;;1.40;;
68229;SDS011;55048;52.220;5.160;2023-10-19T12:45:28;10.93;;;1.48;;
68229;SDS011;55048;52.220;5.160;2023-10-19T12:47:53;11.25;;;1.65;;
68229;SDS011;55048;52.220;5.160;2023-10-19T12:50:19;15.13;;;1.95;;
68229;SDS011;55048;52.220;5.160;2023-10-19T12:52:49;9.20;;;1.40;;
68229;SDS011;55048;52.220;5.160;2023-10-19T12:55:15;12.38;;;1.20;;
68229;SDS011;55048;52.220;5.160;2023-10-19T12:57:41;11.57;;;1.20;;
68229;SDS011;55048;52.220;5.160;2023-10-19T13:00:07;10.60;;;1.08;;
68229;SDS011;55048;52.220;5.160;2023-10-19T13:02:51;9.07;;;1.50;;
68229;SDS011;55048;52.220;5.160;2023-10-19T13:05:25;16.20;;;1.45;;
68229;SDS011;55048;52.220;5.160;2023-10-19T13:07:56;10.15;;;1.45;;
68229;SDS011;55048;52.220;5.160;2023-10-19T13:10:24;11.90;;;1.48;;
68229;SDS011;55048;52.220;5.160;2023-10-19T13:12:54;10.38;;;1.00;;
68229;SDS011;55048;52.220;5.160;2023-10-19T13:15:20;13.95;;;1.45;;
68229;SDS011;55048;52.220;5.160;2023-10-19T13:17:47;12.80;;;1.40;;
68229;SDS011;55048;52.220;5.160;2023-10-19T13:20:13;10.88;;;1.10;;
68229;SDS011;55048;52.220;5.160;2023-10-19T13:22:41;11.52;;;1.30;;
68229;SDS011;55048;52.220;5.160;2023-10-19T13:25:07;12.63;;;1.13;;
68229;SDS011;55048;52.220;5.160;2023-10-19T13:27:34;11.80;;;1.02;;
68229;SDS011;55048;52.220;5.160;2023-10-19T13:30:00;17.98;;;1.55;;
68229;SDS011;55048;52.220;5.160;2023-10-19T13:32:29;12.60;;;0.95;;
68229;SDS011;55048;52.220;5.160;2023-10-19T13:34:56;11.77;;;1.27;;
68229;SDS011;55048;52.220;5.160;2023-10-19T13:37:21;10.77;;;1.45;;
68229;SDS011;55048;52.220;5.160;2023-10-19T13:39:47;15.23;;;1.67;;
68229;SDS011;55048;52.220;5.160;2023-10-19T13:42:13;12.95;;;1.30;;
68229;SDS011;55048;52.220;5.160;2023-10-19T13:44:39;17.77;;;1.90;;
68229;SDS011;55048;52.220;5.160;2023-10-19T13:47:04;9.38;;;1.27;;
68229;SDS011;55048;52.220;5.160;2023-10-19T13:49:31;23.73;;;2.10;;
68229;SDS011;55048;52.220;5.160;2023-10-19T13:51:57;16.33;;;2.08;;
68229;SDS011;55048;52.220;5.160;2023-10-19T13:54:23;16.45;;;1.90;;
68229;SDS011;55048;52.220;5.160;2023-10-19T13:56:48;9.45;;;1.50;;
68229;SDS011;55048;52.220;5.160;2023-10-19T13:59:15;13.05;;;1.40;;
68229;SDS011;55048;52.220;5.160;2023-10-19T14:01:41;21.95;;;2.10;;
68229;SDS011;55048;52.220;5.160;2023-10-19T14:04:06;13.70;;;1.67;;
68229;SDS011;55048;52.220;5.160;2023-10-19T14:06:32;12.25;;;1.80;;
68229;SDS011;55048;52.220;5.160;2023-10-19T14:08:57;11.07;;;1.90;;
68229;SDS011;55048;52.220;5.160;2023-10-19T14:11:22;19.00;;;2.03;;
68229;SDS011;55048;52.220;5.160;2023-10-19T14:13:48;20.65;;;2.13;;
68229;SDS011;55048;52.220;5.160;2023-10-19T14:16:15;12.48;;;2.97;;
68229;SDS011;55048;52.220;5.160;2023-10-19T14:18:41;14.30;;;2.05;;
68229;SDS011;55048;52.220;5.160;2023-10-19T14:21:15;17.98;;;2.65;;
68229;SDS011;55048;52.220;5.160;2023-10-19T14:23:42;15.30;;;2.13;;
68229;SDS011;55048;52.220;5.160;2023-10-19T14:26:09;17.73;;;1.98;;
68229;SDS011;55048;52.220;5.160;2023-10-19T14:28:34;10.55;;;1.70;;
68229;SDS011;55048;52.220;5.160;2023-10-19T14:31:01;12.10;;;1.67;;
68229;SDS011;55048;52.220;5.160;2023-10-19T14:33:30;16.65;;;1.95;;
68229;SDS011;55048;52.220;5.160;2023-10-19T14:35:56;16.88;;;1.65;;
68229;SDS011;55048;52.220;5.160;2023-10-19T14:38:21;13.18;;;1.58;;
68229;SDS011;55048;52.220;5.160;2023-10-19T14:40:46;18.38;;;1.77;;
68229;SDS011;55048;52.220;5.160;2023-10-19T14:43:13;10.55;;;1.48;;
68229;SDS011;55048;52.220;5.160;2023-10-19T14:45:40;14.38;;;1.95;;
68229;SDS011;55048;52.220;5.160;2023-10-19T14:48:06;17.77;;;3.20;;
68229;SDS011;55048;52.220;5.160;2023-10-19T14:50:33;37.95;;;13.20;;
68229;SDS011;55048;52.220;5.160;2023-10-19T14:53:00;23.50;;;5.55;;
68229;SDS011;55048;52.220;5.160;2023-10-19T14:55:25;17.20;;;3.30;;
68229;SDS011;55048;52.220;5.160;2023-10-19T14:57:54;17.40;;;1.95;;
68229;SDS011;55048;52.220;5.160;2023-10-19T15:00:23;16.50;;;1.90;;
68229;SDS011;55048;52.220;5.160;2023-10-19T15:03:09;16.25;;;2.63;;
68229;SDS011;55048;52.220;5.160;2023-10-19T15:05:34;18.98;;;2.35;;
68229;SDS011;55048;52.220;5.160;2023-10-19T15:08:01;21.65;;;2.20;;
68229;SDS011;55048;52.220;5.160;2023-10-19T15:10:27;16.23;;;1.70;;